Time,TemperatureF,DewpointF,PressureIn,WindDirection,WindDirectionDegrees,WindSpeedMPH,WindSpeedGustMPH,Humidity,HourlyPrecipIn,Conditions,Clouds,dailyrainin,SoftwareType,DateUTC
2013-02-15 00:02:00,39.0,-99.9,30.04,SSW,213,8.0,11.0,-999,-99.99,,,-99.99,,2013-02-15 05:02:00,
2013-02-15 00:12:00,39.0,-99.9,30.04,SW,219,7.0,9.0,-999,-99.99,,,-99.99,,2013-02-15 05:12:00,
2013-02-15 00:22:00,38.0,-99.9,30.04,SSW,210,8.0,10.0,-999,-99.99,,,-99.99,,2013-02-15 05:22:00,
2013-02-15 00:33:00,38.0,-99.9,30.04,SSW,206,8.0,11.0,-999,-99.99,,,-99.99,,2013-02-15 05:33:00,
2013-02-15 00:42:00,38.0,-99.9,30.03,SSW,213,9.0,11.0,-999,-99.99,,,-99.99,,2013-02-15 05:42:00,
2013-02-15 00:52:00,38.0,-99.9,30.03,SSW,210,8.0,10.0,-999,-99.99,,,-99.99,,2013-02-15 05:52:00,
2013-02-15 01:02:00,38.0,-99.9,30.03,SSW,204,7.0,9.0,-999,-99.99,,,-99.99,,2013-02-15 06:02:00,
2013-02-15 01:11:00,38.0,-99.9,30.03,SSW,213,6.0,9.0,-999,-99.99,,,-99.99,,2013-02-15 06:11:00,
2013-02-15 01:22:00,38.0,-99.9,30.03,SSW,213,6.0,7.0,-999,-99.99,,,-99.99,,2013-02-15 06:22:00,
2013-02-15 01:32:00,38.0,-99.9,30.03,SW,220,8.0,11.0,-999,-99.99,,,-99.99,,2013-02-15 06:32:00,
2013-02-15 01:42:00,39.0,-99.9,30.03,SW,225,8.0,11.0,-999,-99.99,,,-99.99,,2013-02-15 06:42:00,
2013-02-15 01:52:00,38.0,-99.9,30.02,SW,223,6.0,10.0,-999,-99.99,,,-99.99,,2013-02-15 06:52:00,
2013-02-15 02:01:00,39.0,-99.9,30.02,SW,226,6.0,8.0,-999,-99.99,,,-99.99,,2013-02-15 07:01:00,
2013-02-15 02:11:00,38.0,-99.9,30.02,SW,228,8.0,11.0,-999,-99.99,,,-99.99,,2013-02-15 07:11:00,
2013-02-15 02:21:00,38.0,-99.9,30.02,SW,228,7.0,10.0,-999,-99.99,,,-99.99,,2013-02-15 07:21:00,
2013-02-15 02:32:00,39.0,-99.9,30.02,SW,233,9.0,11.0,-999,-99.99,,,-99.99,,2013-02-15 07:32:00,
2013-02-15 02:42:00,39.0,-99.9,30.02,SW,236,9.0,11.0,-999,-99.99,,,-99.99,,2013-02-15 07:42:00,
2013-02-15 02:52:00,39.0,-99.9,30.02,SW,235,9.0,11.0,-999,-99.99,,,-99.99,,2013-02-15 07:52:00,
2013-02-15 03:01:00,39.0,-99.9,30.02,SW,221,7.0,11.0,-999,-99.99,,,-99.99,,2013-02-15 08:01:00,
2013-02-15 03:11:00,38.0,-99.9,30.02,SW,214,6.0,9.0,-999,-99.99,,,-99.99,,2013-02-15 08:11:00,
2013-02-15 03:22:00,38.0,-99.9,30.02,SW,218,7.0,9.0,-999,-99.99,,,-99.99,,2013-02-15 08:22:00,
2013-02-15 03:32:00,39.0,-99.9,30.02,SSW,208,6.0,9.0,-999,-99.99,,,-99.99,,2013-02-15 08:32:00,
2013-02-15 03:42:00,39.0,-99.9,30.02,SSW,213,8.0,10.0,-999,-99.99,,,-99.99,,2013-02-15 08:42:00,
2013-02-15 03:53:00,39.0,-99.9,30.02,SW,215,6.0,8.0,-999,-99.99,,,-99.99,,2013-02-15 08:53:00,
2013-02-15 04:02:00,38.0,-99.9,30.01,SSW,213,7.0,8.0,-999,-99.99,,,-99.99,,2013-02-15 09:02:00,
2013-02-15 04:12:00,38.0,-99.9,30.01,SW,227,6.0,8.0,-999,-99.99,,,-99.99,,2013-02-15 09:12:00,
2013-02-15 04:22:00,38.0,-99.9,30.01,SW,236,8.0,11.0,-999,-99.99,,,-99.99,,2013-02-15 09:22:00,
2013-02-15 04:32:00,38.0,-99.9,30.02,SW,229,7.0,9.0,-999,-99.99,,,-99.99,,2013-02-15 09:32:00,
2013-02-15 04:42:00,38.0,-99.9,30.01,SW,225,5.0,8.0,-999,-99.99,,,-99.99,,2013-02-15 09:42:00,
2013-02-15 04:52:00,38.0,-99.9,30.01,SSW,203,6.0,9.0,-999,-99.99,,,-99.99,,2013-02-15 09:52:00,
2013-02-15 05:02:00,38.0,-99.9,30.01,SSW,201,6.0,10.0,-999,-99.99,,,-99.99,,2013-02-15 10:02:00,
2013-02-15 05:11:00,38.0,-99.9,30.01,South,188,5.0,8.0,-999,-99.99,,,-99.99,,2013-02-15 10:11:00,
2013-02-15 05:22:00,38.0,-99.9,30.01,South,185,5.0,7.0,-999,-99.99,,,-99.99,,2013-02-15 10:22:00,
2013-02-15 05:32:00,38.0,-99.9,30.01,South,174,7.0,9.0,-999,-99.99,,,-99.99,,2013-02-15 10:32:00,
2013-02-15 05:42:00,39.0,-99.9,30.01,SSW,201,8.0,11.0,-999,-99.99,,,-99.99,,2013-02-15 10:42:00,
2013-02-15 05:52:00,39.0,-99.9,30.01,SSW,199,8.0,10.0,-999,-99.99,,,-99.99,,2013-02-15 10:52:00,
2013-02-15 06:01:00,39.0,-99.9,30.01,SSW,210,7.0,10.0,-999,-99.99,,,-99.99,,2013-02-15 11:01:00,
2013-02-15 06:11:00,39.0,-99.9,30.01,SW,221,7.0,11.0,-999,-99.99,,,-99.99,,2013-02-15 11:11:00,
2013-02-15 06:23:00,39.0,-99.9,30.01,SW,231,7.0,10.0,-999,-99.99,,,-99.99,,2013-02-15 11:23:00,
2013-02-15 06:32:00,39.0,-99.9,30.01,SW,228,6.0,9.0,-999,-99.99,,,-99.99,,2013-02-15 11:32:00,
2013-02-15 06:43:00,38.0,-99.9,30.01,SSW,209,6.0,7.0,-999,-99.99,,,-99.99,,2013-02-15 11:43:00,
2013-02-15 06:52:00,38.0,-99.9,30.02,South,179,5.0,7.0,-999,-99.99,,,-99.99,,2013-02-15 11:52:00,
2013-02-15 07:02:00,38.0,-99.9,30.02,South,177,5.0,7.0,-999,-99.99,,,-99.99,,2013-02-15 12:02:00,
2013-02-15 07:11:00,38.0,-99.9,30.02,South,174,6.0,7.0,-999,-99.99,,,-99.99,,2013-02-15 12:11:00,
2013-02-15 07:22:00,38.0,-99.9,30.02,South,169,5.0,8.0,-999,-99.99,,,-99.99,,2013-02-15 12:22:00,
2013-02-15 07:32:00,38.0,-99.9,30.03,South,180,6.0,10.0,-999,-99.99,,,-99.99,,2013-02-15 12:32:00,
2013-02-15 07:42:00,38.0,-99.9,30.03,South,174,6.0,9.0,-999,-99.99,,,-99.99,,2013-02-15 12:42:00,
2013-02-15 07:53:00,39.0,-99.9,30.03,South,188,6.0,8.0,-999,-99.99,,,-99.99,,2013-02-15 12:53:00,
2013-02-15 08:02:00,39.0,-99.9,30.04,South,181,6.0,9.0,-999,-99.99,,,-99.99,,2013-02-15 13:02:00,
2013-02-15 08:11:00,39.0,-99.9,30.04,South,187,8.0,11.0,-999,-99.99,,,-99.99,,2013-02-15 13:11:00,
2013-02-15 08:22:00,40.0,-99.9,30.04,South,177,9.0,12.0,-999,-99.99,,,-99.99,,2013-02-15 13:22:00,
2013-02-15 08:32:00,40.0,-99.9,30.04,South,182,6.0,8.0,-999,-99.99,,,-99.99,,2013-02-15 13:32:00,
2013-02-15 08:42:00,40.0,-99.9,30.05,South,187,8.0,12.0,-999,-99.99,,,-99.99,,2013-02-15 13:42:00,
2013-02-15 08:52:00,40.0,-99.9,30.05,SSW,192,8.0,12.0,-999,-99.99,,,-99.99,,2013-02-15 13:52:00,
2013-02-15 09:01:00,40.0,-99.9,30.05,South,190,8.0,13.0,-999,-99.99,,,-99.99,,2013-02-15 14:01:00,
2013-02-15 09:12:00,40.0,-99.9,30.05,South,189,8.0,10.0,-999,-99.99,,,-99.99,,2013-02-15 14:12:00,
2013-02-15 09:22:00,41.0,-99.9,30.05,SSW,193,10.0,14.0,-999,-99.99,,,-99.99,,2013-02-15 14:22:00,
2013-02-15 09:32:00,41.0,-99.9,30.05,South,190,11.0,14.0,-999,-99.99,,,-99.99,,2013-02-15 14:32:00,
2013-02-15 09:42:00,41.0,-99.9,30.05,SSW,193,11.0,14.0,-999,-99.99,,,-99.99,,2013-02-15 14:42:00,
2013-02-15 09:52:00,42.0,-99.9,30.04,South,185,12.0,17.0,-999,-99.99,,,-99.99,,2013-02-15 14:52:00,
2013-02-15 10:02:00,42.0,-99.9,30.04,SSW,192,12.0,15.0,-999,-99.99,,,-99.99,,2013-02-15 15:02:00,
2013-02-15 10:11:00,42.0,-99.9,30.04,SSW,197,10.0,13.0,-999,-99.99,,,-99.99,,2013-02-15 15:11:00,
2013-02-15 10:22:00,43.0,-99.9,30.04,South,177,7.0,10.0,-999,-99.99,,,-99.99,,2013-02-15 15:22:00,
2013-02-15 10:32:00,42.0,-99.9,30.04,SSW,193,9.0,12.0,-999,-99.99,,,-99.99,,2013-02-15 15:32:00,
2013-02-15 10:42:00,43.0,-99.9,30.05,SSW,193,8.0,10.0,-999,-99.99,,,-99.99,,2013-02-15 15:42:00,
2013-02-15 10:52:00,43.0,-99.9,30.04,SSW,197,9.0,11.0,-999,-99.99,,,-99.99,,2013-02-15 15:52:00,
2013-02-15 11:02:00,44.0,-99.9,30.04,South,187,6.0,8.0,-999,-99.99,,,-99.99,,2013-02-15 16:02:00,
2013-02-15 11:12:00,44.0,-99.9,30.04,South,184,6.0,10.0,-999,-99.99,,,-99.99,,2013-02-15 16:12:00,
2013-02-15 11:22:00,45.0,-99.9,30.04,SW,218,6.0,8.0,-999,-99.99,,,-99.99,,2013-02-15 16:22:00,
2013-02-15 11:32:00,45.0,-99.9,30.03,South,179,6.0,9.0,-999,-99.99,,,-99.99,,2013-02-15 16:32:00,
2013-02-15 11:43:00,45.0,-99.9,30.03,South,187,6.0,7.0,-999,-99.99,,,-99.99,,2013-02-15 16:43:00,
2013-02-15 11:52:00,45.0,-99.9,30.03,South,183,6.0,9.0,-999,-99.99,,,-99.99,,2013-02-15 16:52:00,
2013-02-15 12:01:00,45.0,-99.9,30.03,South,187,6.0,7.0,-999,-99.99,,,-99.99,,2013-02-15 17:01:00,
2013-02-15 12:11:00,46.0,-99.9,30.02,South,178,6.0,8.0,-999,-99.99,,,-99.99,,2013-02-15 17:11:00,
2013-02-15 12:21:00,46.0,-99.9,30.02,SSW,194,5.0,7.0,-999,-99.99,,,-99.99,,2013-02-15 17:21:00,
2013-02-15 12:32:00,46.0,-99.9,30.02,South,170,6.0,9.0,-999,-99.99,,,-99.99,,2013-02-15 17:32:00,
2013-02-15 12:42:00,46.0,-99.9,30.01,South,179,6.0,9.0,-999,-99.99,,,-99.99,,2013-02-15 17:42:00,
2013-02-15 12:52:00,47.0,-99.9,30.01,South,185,5.0,8.0,-999,-99.99,,,-99.99,,2013-02-15 17:52:00,
2013-02-15 13:02:00,47.0,-99.9,30.00,South,172,6.0,8.0,-999,-99.99,,,-99.99,,2013-02-15 18:02:00,
2013-02-15 13:12:00,48.0,-99.9,30.00,South,187,5.0,7.0,-999,-99.99,,,-99.99,,2013-02-15 18:12:00,
2013-02-15 13:22:00,49.0,-99.9,29.99,SSE,165,4.0,6.0,-999,-99.99,,,-99.99,,2013-02-15 18:22:00,
2013-02-15 13:32:00,48.0,-99.9,29.98,SE,139,5.0,7.0,-999,-99.99,,,-99.99,,2013-02-15 18:32:00,
2013-02-15 13:42:00,49.0,-99.9,29.98,SSE,157,5.0,7.0,-999,-99.99,,,-99.99,,2013-02-15 18:42:00,
2013-02-15 13:53:00,48.0,-99.9,29.98,SE,143,9.0,10.0,-999,-99.99,,,-99.99,,2013-02-15 18:53:00,
2013-02-15 14:02:00,48.0,-99.9,29.97,SE,142,8.0,10.0,-999,-99.99,,,-99.99,,2013-02-15 19:02:00,
2013-02-15 14:11:00,47.0,-99.9,29.96,SE,143,11.0,13.0,-999,-99.99,,,-99.99,,2013-02-15 19:11:00,
2013-02-15 14:22:00,46.0,-99.9,29.96,SSE,163,11.0,13.0,-999,-99.99,,,-99.99,,2013-02-15 19:22:00,
2013-02-15 14:32:00,47.0,-99.9,29.96,SSE,150,10.0,13.0,-999,-99.99,,,-99.99,,2013-02-15 19:32:00,
2013-02-15 14:42:00,46.0,-99.9,29.95,SSE,152,13.0,16.0,-999,-99.99,,,-99.99,,2013-02-15 19:42:00,
2013-02-15 14:52:00,46.0,-99.9,29.95,SSE,157,13.0,17.0,-999,-99.99,,,-99.99,,2013-02-15 19:52:00,
2013-02-15 15:02:00,46.0,-99.9,29.95,SE,146,11.0,16.0,-999,-99.99,,,-99.99,,2013-02-15 20:02:00,
2013-02-15 15:11:00,46.0,-99.9,29.94,SSE,153,12.0,15.0,-999,-99.99,,,-99.99,,2013-02-15 20:11:00,
2013-02-15 15:22:00,46.0,-99.9,29.94,SSE,149,10.0,13.0,-999,-99.99,,,-99.99,,2013-02-15 20:22:00,
2013-02-15 15:32:00,46.0,-99.9,29.94,SSE,151,11.0,15.0,-999,-99.99,,,-99.99,,2013-02-15 20:32:00,
2013-02-15 15:42:00,46.0,-99.9,29.94,SSE,157,10.0,13.0,-999,-99.99,,,-99.99,,2013-02-15 20:42:00,
2013-02-15 15:53:00,46.0,-99.9,29.93,SSE,167,11.0,15.0,-999,-99.99,,,-99.99,,2013-02-15 20:53:00,
2013-02-15 16:02:00,46.0,-99.9,29.93,South,177,11.0,13.0,-999,-99.99,,,-99.99,,2013-02-15 21:02:00,
2013-02-15 16:11:00,46.0,-99.9,29.93,South,172,12.0,17.0,-999,-99.99,,,-99.99,,2013-02-15 21:11:00,
2013-02-15 16:22:00,46.0,-99.9,29.93,South,173,13.0,18.0,-999,-99.99,,,-99.99,,2013-02-15 21:22:00,
2013-02-15 16:32:00,45.0,-99.9,29.93,South,171,13.0,17.0,-999,-99.99,,,-99.99,,2013-02-15 21:32:00,
2013-02-15 16:42:00,44.0,-99.9,29.93,South,174,13.0,20.0,-999,-99.99,,,-99.99,,2013-02-15 21:42:00,
2013-02-15 16:52:00,44.0,-99.9,29.93,South,175,15.0,21.0,-999,-99.99,,,-99.99,,2013-02-15 21:52:00,
2013-02-15 17:02:00,44.0,-99.9,29.93,South,172,13.0,21.0,-999,-99.99,,,-99.99,,2013-02-15 22:02:00,
2013-02-15 17:12:00,44.0,-99.9,29.93,South,171,12.0,17.0,-999,-99.99,,,-99.99,,2013-02-15 22:12:00,
2013-02-15 17:22:00,44.0,-99.9,29.93,SSE,167,13.0,17.0,-999,-99.99,,,-99.99,,2013-02-15 22:22:00,
2013-02-15 17:32:00,44.0,-99.9,29.93,South,171,13.0,18.0,-999,-99.99,,,-99.99,,2013-02-15 22:32:00,
2013-02-15 17:42:00,44.0,-99.9,29.93,South,173,12.0,17.0,-999,-99.99,,,-99.99,,2013-02-15 22:42:00,
2013-02-15 17:52:00,44.0,-99.9,29.93,South,171,12.0,18.0,-999,-99.99,,,-99.99,,2013-02-15 22:52:00,
2013-02-15 18:02:00,43.0,-99.9,29.93,South,172,11.0,13.0,-999,-99.99,,,-99.99,,2013-02-15 23:02:00,
2013-02-15 18:11:00,43.0,-99.9,29.93,South,172,11.0,13.0,-999,-99.99,,,-99.99,,2013-02-15 23:11:00,
2013-02-15 18:21:00,43.0,-99.9,29.93,South,172,12.0,19.0,-999,-99.99,,,-99.99,,2013-02-15 23:21:00,
2013-02-15 18:32:00,43.0,-99.9,29.93,South,171,12.0,18.0,-999,-99.99,,,-99.99,,2013-02-15 23:32:00,
2013-02-15 18:42:00,43.0,-99.9,29.93,South,178,12.0,17.0,-999,-99.99,,,-99.99,,2013-02-15 23:42:00,
2013-02-15 18:52:00,43.0,-99.9,29.93,South,176,14.0,19.0,-999,-99.99,,,-99.99,,2013-02-15 23:52:00,
2013-02-15 19:02:00,43.0,-99.9,29.92,South,173,14.0,17.0,-999,-99.99,,,-99.99,,2013-02-16 00:02:00,
2013-02-15 19:12:00,43.0,-99.9,29.92,South,175,13.0,18.0,-999,-99.99,,,-99.99,,2013-02-16 00:12:00,
2013-02-15 19:22:00,42.0,-99.9,29.92,South,180,12.0,16.0,-999,-99.99,,,-99.99,,2013-02-16 00:22:00,
2013-02-15 19:32:00,43.0,-99.9,29.92,South,177,11.0,16.0,-999,-99.99,,,-99.99,,2013-02-16 00:32:00,
2013-02-15 19:42:00,43.0,-99.9,29.92,South,176,12.0,17.0,-999,-99.99,,,-99.99,,2013-02-16 00:42:00,
2013-02-15 19:52:00,43.0,-99.9,29.92,South,176,12.0,16.0,-999,-99.99,,,-99.99,,2013-02-16 00:52:00,
2013-02-15 20:02:00,43.0,-99.9,29.92,South,174,9.0,15.0,-999,-99.99,,,-99.99,,2013-02-16 01:02:00,
2013-02-15 20:11:00,42.0,-99.9,29.91,South,179,10.0,13.0,-999,-99.99,,,-99.99,,2013-02-16 01:11:00,
2013-02-15 20:21:00,43.0,-99.9,29.91,South,178,11.0,16.0,-999,-99.99,,,-99.99,,2013-02-16 01:21:00,
2013-02-15 20:32:00,43.0,-99.9,29.91,South,179,11.0,14.0,-999,-99.99,,,-99.99,,2013-02-16 01:32:00,
2013-02-15 20:42:00,43.0,-99.9,29.91,South,174,10.0,15.0,-999,-99.99,,,-99.99,,2013-02-16 01:42:00,
2013-02-15 20:52:00,42.0,-99.9,29.91,South,178,9.0,12.0,-999,-99.99,,,-99.99,,2013-02-16 01:52:00,
2013-02-15 21:01:00,42.0,-99.9,29.92,South,178,8.0,11.0,-999,-99.99,,,-99.99,,2013-02-16 02:01:00,
2013-02-15 21:11:00,42.0,-99.9,29.92,South,173,9.0,12.0,-999,-99.99,,,-99.99,,2013-02-16 02:11:00,
2013-02-15 21:22:00,42.0,-99.9,29.92,South,174,8.0,13.0,-999,-99.99,,,-99.99,,2013-02-16 02:22:00,
2013-02-15 21:32:00,42.0,-99.9,29.92,South,176,9.0,13.0,-999,-99.99,,,-99.99,,2013-02-16 02:32:00,
2013-02-15 21:42:00,42.0,-99.9,29.92,South,184,7.0,11.0,-999,-99.99,,,-99.99,,2013-02-16 02:42:00,
2013-02-15 21:52:00,43.0,-99.9,29.92,South,184,7.0,10.0,-999,-99.99,,,-99.99,,2013-02-16 02:52:00,
2013-02-15 22:02:00,43.0,-99.9,29.92,South,188,7.0,10.0,-999,-99.99,,,-99.99,,2013-02-16 03:02:00,
2013-02-15 22:11:00,43.0,-99.9,29.92,SSW,194,7.0,9.0,-999,-99.99,,,-99.99,,2013-02-16 03:11:00,
2013-02-15 22:22:00,44.0,-99.9,29.93,SSW,209,6.0,9.0,-999,-99.99,,,-99.99,,2013-02-16 03:22:00,
2013-02-15 22:32:00,41.0,-99.9,29.95,NW,317,10.0,15.0,-999,-99.99,,,-99.99,,2013-02-16 03:32:00,
2013-02-15 22:42:00,43.0,-99.9,29.95,NW,307,12.0,16.0,-999,-99.99,,,-99.99,,2013-02-16 03:42:00,
2013-02-15 22:52:00,43.0,-99.9,29.96,WNW,300,12.0,14.0,-999,-99.99,,,-99.99,,2013-02-16 03:52:00,
2013-02-15 23:01:00,44.0,-99.9,29.96,WNW,297,13.0,16.0,-999,-99.99,,,-99.99,,2013-02-16 04:01:00,
2013-02-15 23:11:00,43.0,-99.9,29.96,NW,312,10.0,13.0,-999,-99.99,,,-99.99,,2013-02-16 04:11:00,
2013-02-15 23:22:00,43.0,-99.9,29.96,NW,319,7.0,15.0,-999,-99.99,,,-99.99,,2013-02-16 04:22:00,
2013-02-15 23:32:00,42.0,-99.9,29.96,NNW,328,8.0,15.0,-999,-99.99,,,-99.99,,2013-02-16 04:32:00,
2013-02-15 23:42:00,42.0,-99.9,29.96,NNW,327,9.0,19.0,-999,-99.99,,,-99.99,,2013-02-16 04:42:00,
2013-02-15 23:52:00,42.0,-99.9,29.96,NNW,327,7.0,15.0,-999,-99.99,,,-99.99,,2013-02-16 04:52:00,